Flight Track Log - Related Links

Times and Time Zones

All times are in EDT time to prevent confusion due to time zone crossing. See the SWA311 flight status page for this flight to view local times or setup timezone preferences in your user account.

Time Position Orientation Groundspeed Altitude Reporting Facility
EDT Latitude Longitude Course Direction KTS MPH feet Rate Location/Type
Sun 02:59:01 PM 29.6333 -95.2653 65° Northeast 158 182 700  Level Houston Center
Sun 02:59:57 PM 29.6503 -95.2225 65° Northeast 215 247 2,800 2,500 Climbing Houston Center
Sun 03:01:01 PM 29.7208 -95.2336 352° North 242 278 5,700 3,077 Climbing Houston Center
Sun 03:01:54 PM 29.7833 -95.2544 344° North 285 328 8,800 3,000 Climbing Houston Center
Sun 03:03:05 PM 29.8769 -95.2844 344° North 294 338 11,900 2,662 Climbing Houston Center
Sun 03:04:07 PM 29.9686 -95.2569 15° North 349 402 14,700 2,903 Climbing Houston Center
Sun 03:05:09 PM 30.0617 -95.2039 26° Northeast 368 423 17,900 2,880 Climbing Houston Center
Sun 03:06:12 PM 30.1544 -95.1500 27° Northeast 373 429 20,700 2,256 Climbing Houston Center
Sun 03:07:14 PM 30.2525 -95.0944 26° Northeast 388 447 22,600 2,081 Climbing Houston Center
Sun 03:08:16 PM 30.3783 -95.0208 27° Northeast 418 481 25,000 1,887 Climbing Houston Center
Sun 03:09:18 PM 30.4772 -94.9503 32° Northeast 442 509 26,500 1,355 Climbing Houston Center
Sun 03:10:20 PM 30.5864 -94.8672 33° Northeast 464 534 27,800 1,355 Climbing Houston Center
Sun 03:11:22 PM 30.7244 -94.7606 34° Northeast 498 573 29,300 1,548 Climbing Houston Center
Sun 03:12:24 PM 30.8419 -94.6686 34° Northeast 510 587 31,000 1,694 Climbing Houston Center
Sun 03:13:26 PM 30.9594 -94.5786 33° Northeast 510 587 32,800 1,538 Climbing Houston Center
Sun 03:13:42 PM 30.9869 -94.5567 34° Northeast 504 580 33,000 3,316 Climbing Fort Worth Center
Sun 03:14:42 PM 31.1203 -94.4531 34° Northeast 509 586 37,000 1,500 Climbing Fort Worth Center
Sun 03:15:42 PM 31.2411 -94.3594 34° Northeast 512 589 36,000  Descending Fort Worth Center
Sun 03:16:42 PM 31.3558 -94.2681 34° Northeast 514 592 37,000 500 Climbing Fort Worth Center
Sun 03:17:42 PM 31.4683 -94.1814 33° Northeast 503 579 37,000  Level Fort Worth Center
Sun 03:18:42 PM 31.5786 -94.0825 37° Northeast 492 566 37,000  Level Fort Worth Center
Sun 03:19:42 PM 31.6678 -93.9842 43° Northeast 487 560 37,000  Level Fort Worth Center
Sun 03:20:42 PM 31.7631 -93.8778 43° Northeast 481 554 37,000  Level Fort Worth Center
Sun 03:21:42 PM 31.8600 -93.7667 44° Northeast 481 554 37,000  Level Fort Worth Center
Sun 03:22:42 PM 31.9589 -93.6550 44° Northeast 481 554 37,000  Level Fort Worth Center
Sun 03:23:42 PM 32.0558 -93.5456 44° Northeast 486 559 37,000  Level Fort Worth Center
Sun 03:24:42 PM 32.1506 -93.4361 44° Northeast 486 559 37,000  Level Fort Worth Center
Sun 03:25:42 PM 32.2469 -93.3139 47° Northeast 486 559 37,000  Level Fort Worth Center
Sun 03:26:42 PM 32.3433 -93.2039 44° Northeast 486 559 37,000  Level Fort Worth Center
Sun 03:27:42 PM 32.4397 -93.0911 45° Northeast 486 559 37,000  Level Fort Worth Center
Sun 03:28:42 PM 32.5361 -92.9831 43° Northeast 486 559 37,000  Level Fort Worth Center
Sun 03:29:42 PM 32.6325 -92.8722 44° Northeast 486 559 37,000  Level Fort Worth Center
Sun 03:30:42 PM 32.7286 -92.7611 44° Northeast 486 559 37,000  Level Fort Worth Center
Sun 03:31:42 PM 32.8244 -92.6475 45° Northeast 486 559 37,000  Level Fort Worth Center
Sun 03:32:42 PM 32.9225 -92.5358 44° Northeast 491 565 37,000  Level Fort Worth Center
Sun 03:33:42 PM 33.0161 -92.4217 46° Northeast 486 559 37,000  Level Fort Worth Center
Sun 03:35:21 PM 33.1733 -92.2411 44° Northeast 498 573 37,000  Level Memphis Center
Sun 03:36:21 PM 33.2647 -92.1286 46° Northeast 484 557 37,000  Level Memphis Center
Sun 03:37:21 PM 33.3622 -92.0211 43° Northeast 473 544 37,000  Level Memphis Center
Sun 03:38:21 PM 33.4514 -91.9083 47° Northeast 473 544 37,000  Level Memphis Center
Sun 03:39:21 PM 33.5467 -91.7953 45° Northeast 473 544 37,000  Level Memphis Center
Sun 03:40:21 PM 33.6419 -91.6772 46° Northeast 466 536 37,000  Level Memphis Center
Sun 03:41:21 PM 33.7350 -91.5661 45° Northeast 458 527 37,000  Level Memphis Center
Sun 03:42:21 PM 33.8278 -91.4500 46° Northeast 458 527 37,000  Level Memphis Center
Sun 03:43:21 PM 33.9228 -91.3386 44° Northeast 464 534 37,000  Level Memphis Center
Sun 03:44:21 PM 34.0111 -91.2242 47° Northeast 464 534 37,000  Level Memphis Center
Sun 03:45:21 PM 34.1058 -91.1147 44° Northeast 464 534 37,000  Level Memphis Center
Sun 03:46:21 PM 34.1878 -91.0150 45° Northeast 464 534 37,000  Level Memphis Center
Sun 03:47:21 PM 34.2800 -90.9050 45° Northeast 464 534 37,000  Level Memphis Center
Sun 03:48:21 PM 34.3703 -90.7900 46° Northeast 459 528 37,000  Level Memphis Center
Sun 03:49:21 PM 34.4644 -90.6769 45° Northeast 459 528 37,000  Level Memphis Center
Sun 03:50:21 PM 34.5522 -90.5664 46° Northeast 459 528 37,000  Level Memphis Center
Sun 03:51:21 PM 34.6442 -90.4531 45° Northeast 459 528 37,000  Level Memphis Center
Sun 03:52:21 PM 34.7425 -90.3319 45° Northeast 459 528 37,000  Level Memphis Center
Sun 03:53:21 PM 34.8319 -90.2206 46° Northeast 459 528 37,000  Level Memphis Center
Sun 03:54:21 PM 34.9217 -90.1089 46° Northeast 459 528 37,000  Level Memphis Center
Sun 03:55:21 PM 35.0089 -89.9894 48° Northeast 459 528 37,000  Level Memphis Center
Sun 03:56:21 PM 35.0794 -89.8547 57° Northeast 465 535 37,000  Level Memphis Center
Sun 03:57:21 PM 35.1456 -89.7322 57° Northeast 472 543 37,000  Level Memphis Center
Sun 03:58:21 PM 35.2136 -89.5947 59° Northeast 472 543 37,000  Level Memphis Center
Sun 03:59:21 PM 35.2836 -89.4592 58° Northeast 477 549 37,000  Level Memphis Center
Sun 04:00:21 PM 35.3533 -89.3233 58° Northeast 477 549 37,000  Level Memphis Center
Sun 04:01:21 PM 35.4292 -89.1747 58° Northeast 477 549 37,000  Level Memphis Center
Sun 04:02:21 PM 35.5008 -89.0386 57° Northeast 477 549 37,000  Level Memphis Center
Sun 04:03:21 PM 35.5744 -88.8969 57° Northeast 477 549 37,000  Level Memphis Center
Sun 04:04:21 PM 35.6333 -88.7758 59° Northeast 477 549 37,000  Level Memphis Center
Sun 04:05:21 PM 35.7044 -88.6314 59° Northeast 477 549 37,000  Level Memphis Center
Sun 04:06:21 PM 35.7756 -88.4942 57° Northeast 477 549 37,000  Level Memphis Center
Sun 04:07:21 PM 35.8464 -88.3544 58° Northeast 477 549 37,000  Level Memphis Center
Sun 04:08:21 PM 35.9169 -88.2117 59° Northeast 477 549 37,000  Level Memphis Center
Sun 04:09:21 PM 35.9894 -88.0764 56° Northeast 477 549 37,000  Level Memphis Center
Sun 04:10:21 PM 36.0597 -87.9358 58° Northeast 477 549 37,000  Level Memphis Center
Sun 04:11:21 PM 36.1319 -87.7922 58° Northeast 482 555 37,000  Level Memphis Center
Sun 04:12:21 PM 36.2078 -87.6356 59° Northeast 477 549 37,000  Level Memphis Center
Sun 04:13:21 PM 36.2797 -87.4917 58° Northeast 488 562 37,000  Level Memphis Center
Sun 04:14:21 PM 36.3492 -87.3475 59° Northeast 488 562 37,000  Level Memphis Center
Sun 04:15:21 PM 36.4228 -87.2028 58° Northeast 488 562 37,000  Level Memphis Center
Sun 04:16:21 PM 36.4961 -87.0528 59° Northeast 494 568 37,000  Level Memphis Center
Sun 04:17:21 PM 36.5592 -86.9211 59° Northeast 500 575 37,000  Level Memphis Center
Sun 04:18:21 PM 36.6300 -86.7706 60° Northeast 500 575 37,000  Level Memphis Center
Sun 04:19:21 PM 36.7006 -86.6228 59° Northeast 500 575 37,000  Level Memphis Center
Sun 04:20:21 PM 36.7692 -86.4769 60° Northeast 500 575 37,000  Level Memphis Center
Sun 04:22:20 PM 36.9128 -86.1728 59° Northeast 498 573 37,000  Level Indianapolis Center
Sun 04:23:22 PM 36.9847 -86.0228 59° Northeast 499 574 37,000  Level Indianapolis Center
Sun 04:24:24 PM 37.0556 -85.8722 59° Northeast 498 573 37,000  Level Indianapolis Center
Sun 04:25:26 PM 37.1247 -85.7208 60° Northeast 495 570 37,000  Level Indianapolis Center
Sun 04:26:28 PM 37.1956 -85.5700 59° Northeast 498 573 37,000  Level Indianapolis Center
Sun 04:27:30 PM 37.2650 -85.4217 59° Northeast 487 560 37,000  Level Indianapolis Center
Sun 04:28:32 PM 37.3442 -85.2461 60° Northeast 491 565 37,000  Level Indianapolis Center
Sun 04:29:34 PM 37.4139 -85.0958 60° Northeast 495 570 37,000  Level Indianapolis Center
Sun 04:30:36 PM 37.4861 -84.9417 59° Northeast 504 580 37,000  Level Indianapolis Center
Sun 04:31:38 PM 37.5544 -84.7875 61° Northeast 502 578 37,000  Level Indianapolis Center
Sun 04:32:40 PM 37.6233 -84.6339 60° Northeast 500 575 37,000  Level Indianapolis Center
Sun 04:33:42 PM 37.6939 -84.4800 60° Northeast 505 581 37,000  Level Indianapolis Center
Sun 04:34:44 PM 37.7758 -84.2978 60° Northeast 507 583 37,000  Level Indianapolis Center
Sun 04:35:46 PM 37.8447 -84.1433 61° Northeast 505 581 37,000  Level Indianapolis Center
Sun 04:36:48 PM 37.9139 -83.9867 61° Northeast 509 586 37,000  Level Indianapolis Center
Sun 04:37:50 PM 37.9831 -83.8303 61° Northeast 511 588 37,000  Level Indianapolis Center
Sun 04:38:52 PM 38.0517 -83.6719 61° Northeast 509 586 37,000  Level Indianapolis Center
Sun 04:39:54 PM 38.1208 -83.5147 61° Northeast 508 585 37,000  Level Indianapolis Center
Sun 04:40:56 PM 38.2000 -83.3306 61° Northeast 509 586 37,000  Level Indianapolis Center
Sun 04:41:58 PM 38.2683 -83.1706 61° Northeast 511 588 37,000  Level Indianapolis Center
Sun 04:43:00 PM 38.3369 -83.0114 61° Northeast 512 589 37,000 -240 Level Indianapolis Center
Sun 04:44:03 PM 38.4067 -82.8522 61° Northeast 514 592 36,500 -480 Descending Indianapolis Center
Sun 04:45:05 PM 38.4747 -82.6894 62° Northeast 518 596 36,000 -629 Descending Indianapolis Center
Sun 04:46:07 PM 38.5550 -82.4994 62° Northeast 521 600 35,200 -1,113 Descending Indianapolis Center
Sun 04:47:09 PM 38.6219 -82.3417 61° Northeast 528 608 33,700 -1,694 Descending Indianapolis Center
Sun 04:48:11 PM 38.6911 -82.1761 62° Northeast 527 606 31,700 -2,032 Descending Indianapolis Center
Sun 04:49:13 PM 38.7681 -82.0189 58° Northeast 525 604 29,500 -1,645 Descending Indianapolis Center
Sun 04:50:15 PM 38.8856 -81.9033 37° Northeast 525 604 28,300 -1,161 Descending Indianapolis Center
Sun 04:51:17 PM 38.9972 -81.7978 36° Northeast 497 572 27,100 -1,210 Descending Indianapolis Center
Sun 04:52:19 PM 39.0989 -81.7019 36° Northeast 456 525 25,800 -1,268 Descending Indianapolis Center
Sun 04:53:20 PM 39.1950 -81.6100 37° Northeast 431 496 24,500 -1,220 Descending Indianapolis Center
Sun 04:54:22 PM 39.3081 -81.5022 36° Northeast 421 484 23,300 -1,065 Descending Indianapolis Center
Sun 04:55:24 PM 39.4031 -81.4125 36° Northeast 423 487 22,300 -1,009 Descending Indianapolis Center
Sun 04:56:09 PM 39.4789 -81.3389 37° Northeast 430 495 21,500 -743 Descending Cleveland Center
Sun 04:57:09 PM 39.5692 -81.2536 36° Northeast 425 489 21,000 -250 Descending Cleveland Center
Sun 04:58:09 PM 39.6592 -81.1656 37° Northeast 412 474 21,000 -950 Level Cleveland Center
Sun 04:59:09 PM 39.7492 -81.0772 37° Northeast 412 474 19,100 -2,050 Descending Cleveland Center
Sun 05:00:09 PM 39.8392 -80.9939 35° Northeast 407 468 16,900 -2,150 Descending Cleveland Center
Sun 05:01:09 PM 39.9228 -80.9106 37° Northeast 394 453 14,800 -2,250 Descending Cleveland Center
Sun 05:02:09 PM 40.0086 -80.8297 36° Northeast 383 441 12,400 -2,150 Descending Cleveland Center
Sun 05:03:09 PM 40.0919 -80.7567 34° Northeast 378 435 10,500 -1,450 Descending Cleveland Center
Sun 05:04:09 PM 40.1672 -80.6889 35° Northeast 348 400 9,500 -1,300 Descending Cleveland Center
Sun 05:05:09 PM 40.2381 -80.6267 34° Northeast 320 368 7,900 -1,636 Descending Cleveland Center
Sun 05:06:10 PM 40.3069 -80.5642 35° Northeast 307 353 6,200 -1,300 Descending Cleveland Center
Sun 05:07:09 PM 40.3653 -80.5503 10° North 275 316 5,300 -857 Descending Cleveland Center
Sun 05:08:09 PM 40.4444 -80.5558 357° North 258 297 4,500 -850 Descending Cleveland Center
Sun 05:09:09 PM 40.5008 -80.5175 27° Northeast 240 276 3,600 -750 Descending Cleveland Center
Sun 05:10:09 PM 40.5089 -80.4411 82° East 193 222 3,000 -600 Descending Cleveland Center
Sun 05:12:00 PM 40.4915 -80.2329 57° Northeast  Level Estimated
Sun 05:19:00 PM 40.4915 -80.2329 57° Northeast  Level Estimated
Sun 05:20:00 PM 40.4915 -80.2329 57° Northeast  Level Estimated
Sun 05:21:00 PM 40.4915 -80.2329 57° Northeast  Level Estimated

Login

Don't have an account? Register now (free) for customized features, flight alerts, and more!